Time;durP1;ratioP1;P1;durP2;ratioP2;P2;SDS_P1;SDS_P2;PMS_P1;PMS_P2;Temp;Humidity;BMP_temperature;BMP_pressure;BME280_temperature;BME280_humidity;BME280_pressure;Samples;Min_cycle;Max_cycle;Signal;HPM_P1;HPM_P2
2021/09/01 00:01:48;;;;;;;8.48;5.70;;;;;;;16.01;77.87;99254.89;1688864;83;21011;-74
2021/09/01 00:04:15;;;;;;;7.10;6.40;;;;;;;15.93;78.33;99256.09;1714031;83;21093;-77
2021/09/01 00:06:43;;;;;;;6.70;6.05;;;;;;;15.92;78.75;99253.14;1702531;83;21039;-77
2021/09/01 00:09:10;;;;;;;10.00;6.42;;;;;;;15.99;78.81;99253.55;1685093;85;21079;-77
2021/09/01 00:11:38;;;;;;;7.30;6.58;;;;;;;16.07;78.66;99257.75;1685319;85;22079;-76
2021/09/01 00:14:04;;;;;;;8.38;7.28;;;;;;;16.17;78.35;99262.20;1661490;85;21543;-77
2021/09/01 00:16:31;;;;;;;15.65;7.85;;;;;;;16.23;78.01;99258.86;1685302;85;21222;-78
2021/09/01 00:19:03;;;;;;;10.72;9.60;;;;;;;16.28;78.04;99257.42;1661370;85;20994;-75
2021/09/01 00:21:30;;;;;;;9.53;8.15;;;;;;;16.32;77.90;99255.71;1660844;85;21053;-78
2021/09/01 00:23:57;;;;;;;8.95;8.03;;;;;;;16.40;77.64;99258.55;1707197;83;21159;-75
2021/09/01 00:26:23;;;;;;;8.10;7.30;;;;;;;16.45;77.48;99259.03;1661296;85;21053;-76
2021/09/01 00:28:49;;;;;;;8.33;7.53;;;;;;;16.50;77.29;99256.20;1685318;85;22878;-78
2021/09/01 00:31:18;;;;;;;8.68;7.78;;;;;;;16.58;77.12;99256.92;1685292;85;21030;-76
2021/09/01 00:33:46;;;;;;;11.95;9.48;;;;;;;16.65;76.70;99254.59;1685193;85;21058;-78
2021/09/01 00:36:13;;;;;;;7.58;6.75;;;;;;;16.68;76.43;99256.73;1696597;83;21073;-75
2021/09/01 00:38:40;;;;;;;8.80;5.53;;;;;;;16.69;75.96;99256.18;1711916;83;21519;-76
2021/09/01 00:41:07;;;;;;;6.40;5.67;;;;;;;16.63;75.77;99259.54;1659954;85;21127;-75
2021/09/01 00:43:34;;;;;;;8.83;5.58;;;;;;;16.54;75.67;99260.76;1706332;83;20971;-75
2021/09/01 00:46:03;;;;;;;7.05;5.58;;;;;;;16.33;75.98;99256.78;1684150;85;21539;-75
2021/09/01 00:48:30;;;;;;;9.03;5.05;;;;;;;16.02;77.01;99256.47;1683848;85;20986;-76
2021/09/01 00:50:58;;;;;;;6.10;5.25;;;;;;;15.76;78.01;99259.89;1690481;83;21050;-76
2021/09/01 00:53:28;;;;;;;5.67;4.80;;;;;;;15.60;78.97;99262.82;1713645;83;21051;-75
2021/09/01 00:55:58;;;;;;;8.10;5.50;;;;;;;15.53;79.60;99262.39;1689056;83;20908;-75
2021/09/01 00:58:24;;;;;;;8.33;5.75;;;;;;;15.46;80.05;99254.32;1685060;85;21045;-76
2021/09/01 01:03:34;;;;;;;6.28;5.65;;;;;;;15.30;81.12;99251.00;1670377;85;21557;-74
2021/09/01 01:06:01;;;;;;;10.88;5.85;;;;;;;15.21;81.84;99248.69;1714077;83;21214;-80
2021/09/01 01:08:30;;;;;;;9.43;6.85;;;;;;;15.09;82.20;99243.70;1678254;83;21598;-83
2021/09/01 01:10:58;;;;;;;8.48;6.15;;;;;;;15.01;82.65;99233.50;1688984;83;21090;-79
2021/09/01 01:13:29;;;;;;;6.55;5.95;;;;;;;15.04;83.04;99237.00;1714128;83;21030;-77
2021/09/01 01:15:57;;;;;;;9.85;5.87;;;;;;;15.10;83.19;99235.84;1714287;83;21523;-77
2021/09/01 01:18:23;;;;;;;7.78;7.08;;;;;;;15.09;83.25;99223.39;1713946;83;21259;-77
2021/09/01 01:20:51;;;;;;;10.20;7.95;;;;;;;15.05;83.42;99227.78;1710903;83;21078;-70
2021/09/01 01:23:20;;;;;;;9.73;8.73;;;;;;;15.06;83.75;99222.60;1690299;83;21119;-69
2021/09/01 01:25:46;;;;;;;13.43;9.50;;;;;;;15.10;83.64;99218.23;1712132;83;21052;-71
2021/09/01 01:28:13;;;;;;;15.98;11.28;;;;;;;15.11;83.59;99215.77;1712345;82;21041;-78
2021/09/01 01:30:40;;;;;;;25.70;11.20;;;;;;;15.06;83.67;99225.31;1732885;82;21094;-79
2021/09/01 01:33:08;;;;;;;25.37;16.30;;;;;;;15.01;83.86;99225.95;1718895;82;21007;-79
2021/09/01 01:35:39;;;;;;;30.35;17.00;;;;;;;14.95;84.22;99225.20;1741781;82;21598;-74
2021/09/01 01:38:08;;;;;;;28.00;17.87;;;;;;;14.91;84.56;99232.84;1741763;81;22272;-88
2021/09/01 01:40:35;;;;;;;41.60;22.22;;;;;;;14.85;84.85;99229.38;1735474;81;21058;-78
2021/09/01 01:43:01;;;;;;;59.53;36.80;;;;;;;14.80;85.30;99222.67;1717376;82;21554;-89
2021/09/01 01:45:43;;;;;;;72.75;39.98;;;;;;;14.72;85.76;99217.91;1741180;81;20990;-72
2021/09/01 01:48:13;;;;;;;79.22;45.30;;;;;;;14.60;86.12;99212.88;1740602;82;20943;-74
2021/09/01 01:50:43;;;;;;;80.75;44.83;;;;;;;14.52;86.93;99212.70;1718455;82;21013;-74
2021/09/01 01:53:09;;;;;;;76.53;40.60;;;;;;;14.47;87.52;99208.70;1741956;82;21479;-80
2021/09/01 01:55:38;;;;;;;60.55;37.40;;;;;;;14.44;87.85;99206.00;1742000;82;21530;-74
2021/09/01 01:58:04;;;;;;;65.05;39.18;;;;;;;14.41;88.23;99199.83;1729036;82;20976;-75
2021/09/01 02:00:31;;;;;;;64.40;37.75;;;;;;;14.39;88.57;99196.59;1703469;82;20982;-76
2021/09/01 02:02:57;;;;;;;64.50;36.83;;;;;;;14.38;88.90;99193.65;1713914;83;20963;-77
2021/09/01 02:05:25;;;;;;;62.65;35.85;;;;;;;14.36;89.23;99192.57;1699093;83;21030;-77
2021/09/01 02:07:52;;;;;;;42.58;25.10;;;;;;;14.35;89.51;99189.56;1684007;85;21552;-76
2021/09/01 02:10:19;;;;;;;32.95;20.23;;;;;;;14.40;90.06;99187.38;1689453;83;21075;-78
2021/09/01 02:12:45;;;;;;;28.32;16.80;;;;;;;14.57;90.58;99192.36;1741922;82;20963;-77
2021/09/01 02:15:13;;;;;;;23.60;17.32;;;;;;;14.72;90.87;99191.61;1714283;83;21468;-78
2021/09/01 02:17:41;;;;;;;34.60;21.60;;;;;;;14.84;90.61;99181.19;1696129;83;21006;-82
2021/09/01 02:20:10;;;;;;;51.77;25.08;;;;;;;14.91;90.24;99178.14;1683924;85;21191;-79
2021/09/01 02:22:39;;;;;;;24.65;14.95;;;;;;;14.99;89.90;99178.84;1713915;83;20987;-73
2021/09/01 02:25:07;;;;;;;17.17;13.30;;;;;;;15.06;89.39;99188.75;1714243;83;21025;-74
2021/09/01 02:27:34;;;;;;;20.52;12.40;;;;;;;15.14;89.22;99190.83;1712008;83;21027;-74
2021/09/01 02:30:03;;;;;;;13.38;11.03;;;;;;;15.17;88.45;99188.88;1713894;83;21006;-74
2021/09/01 02:32:29;;;;;;;16.20;8.70;;;;;;;15.19;88.42;99186.69;1689470;83;22325;-74
2021/09/01 02:34:57;;;;;;;12.95;9.78;;;;;;;15.25;88.40;99188.20;1713785;83;21550;-74
2021/09/01 02:37:23;;;;;;;11.08;9.18;;;;;;;15.32;88.14;99180.27;1706417;83;20963;-75
2021/09/01 02:39:49;;;;;;;14.05;10.18;;;;;;;15.37;87.73;99175.59;1687071;83;21027;-74
2021/09/01 02:42:17;;;;;;;24.47;11.53;;;;;;;15.38;87.55;99173.69;1702827;83;21046;-75
2021/09/01 02:44:43;;;;;;;17.23;11.00;;;;;;;15.36;86.80;99175.33;1714972;82;21235;-74
2021/09/01 02:47:09;;;;;;;11.03;8.93;;;;;;;15.34;86.31;99172.67;1739412;82;21038;-74
2021/09/01 02:49:36;;;;;;;9.45;8.55;;;;;;;15.36;86.42;99171.27;1741186;82;21062;-76
2021/09/01 02:52:04;;;;;;;12.05;9.28;;;;;;;15.43;86.58;99169.00;1746850;81;20958;-74
2021/09/01 02:54:30;;;;;;;15.38;8.55;;;;;;;15.52;86.64;99170.52;1765742;81;20994;-74
2021/09/01 02:56:57;;;;;;;9.08;7.58;;;;;;;15.58;86.35;99168.80;1751360;81;21227;-74
2021/09/01 02:59:23;;;;;;;10.10;9.10;;;;;;;15.64;86.00;99164.08;1715146;82;20981;-74
2021/09/01 03:01:49;;;;;;;11.10;7.80;;;;;;;15.64;85.72;99160.02;1739201;82;21038;-74
2021/09/01 03:04:16;;;;;;;19.60;11.55;;;;;;;15.65;85.46;99158.38;1741914;82;20942;-75
2021/09/01 03:06:42;;;;;;;10.03;9.03;;;;;;;15.67;85.29;99158.89;1741648;82;21511;-74
2021/09/01 03:09:09;;;;;;;9.05;8.10;;;;;;;15.70;85.10;99152.06;1741688;81;21061;-74
2021/09/01 03:11:35;;;;;;;9.33;8.38;;;;;;;15.76;84.96;99155.50;1741731;82;21550;-74
2021/09/01 03:14:03;;;;;;;14.28;8.73;;;;;;;15.82;84.75;99148.35;1719234;81;21474;-75
2021/09/01 03:16:30;;;;;;;9.80;8.65;;;;;;;15.87;84.38;99149.63;1714128;82;20966;-73
2021/09/01 03:18:58;;;;;;;10.00;8.85;;;;;;;15.87;83.88;99150.17;1741053;82;20907;-75
2021/09/01 03:21:24;;;;;;;8.68;7.83;;;;;;;15.80;83.65;99147.83;1741647;82;21870;-74
2021/09/01 03:23:50;;;;;;;13.78;9.28;;;;;;;15.77;83.54;99142.20;1741696;82;21602;-75
2021/09/01 03:26:17;;;;;;;13.72;8.63;;;;;;;15.76;83.67;99146.81;1737075;82;21086;-76
2021/09/01 03:28:45;;;;;;;9.48;8.48;;;;;;;15.81;83.72;99146.73;1737122;82;21037;-76
2021/09/01 03:31:11;;;;;;;12.40;8.43;;;;;;;15.87;83.63;99152.88;1736696;82;21102;-73
2021/09/01 03:33:38;;;;;;;15.90;8.90;;;;;;;15.89;83.46;99161.50;1711924;82;20998;-75
2021/09/01 03:36:05;;;;;;;9.58;7.92;;;;;;;15.88;83.47;99159.89;1711523;83;20947;-75
2021/09/01 03:38:31;;;;;;;9.48;8.18;;;;;;;15.90;83.20;99166.64;1688140;83;20987;-74
2021/09/01 03:40:58;;;;;;;10.13;7.72;;;;;;;15.89;83.02;99165.57;1689028;83;21593;-74
2021/09/01 03:43:24;;;;;;;14.38;9.88;;;;;;;15.87;82.90;99164.53;1707421;83;21032;-72
2021/09/01 03:45:54;;;;;;;12.03;8.50;;;;;;;15.85;82.73;99165.92;1737444;81;21140;-73
2021/09/01 03:48:19;;;;;;;9.25;6.62;;;;;;;15.83;82.61;99159.42;1723316;82;21518;-75
2021/09/01 03:50:45;;;;;;;8.35;7.58;;;;;;;15.83;82.44;99162.69;1736766;82;21014;-74
2021/09/01 03:53:13;;;;;;;7.75;6.95;;;;;;;15.83;82.49;99162.69;1736971;82;21546;-73
2021/09/01 03:55:39;;;;;;;9.93;7.25;;;;;;;15.85;82.54;99162.66;1736265;82;21002;-76
2021/09/01 03:58:06;;;;;;;13.93;8.13;;;;;;;15.85;82.37;99161.85;1736970;82;21587;-74
2021/09/01 04:00:32;;;;;;;11.20;8.60;;;;;;;15.84;82.14;99167.02;1713505;82;21014;-75
2021/09/01 04:02:59;;;;;;;10.38;7.12;;;;;;;15.81;81.90;99165.72;1707698;83;21526;-74
2021/09/01 04:05:27;;;;;;;9.95;7.67;;;;;;;15.82;81.62;99171.40;1683845;83;20978;-75
2021/09/01 04:07:54;;;;;;;8.23;7.47;;;;;;;15.83;81.40;99160.78;1682125;85;21635;-75
2021/09/01 04:10:20;;;;;;;12.68;10.82;;;;;;;15.87;81.23;99163.73;1669846;83;21262;-74
2021/09/01 04:12:46;;;;;;;10.20;9.13;;;;;;;15.83;81.27;99169.46;1689319;83;21074;-75
2021/09/01 04:15:13;;;;;;;9.38;8.48;;;;;;;15.80;81.47;99166.81;1692569;83;21487;-76
2021/09/01 04:17:40;;;;;;;8.08;7.25;;;;;;;15.77;81.57;99167.96;1661500;85;20978;-76
2021/09/01 04:20:08;;;;;;;11.25;8.13;;;;;;;15.77;81.67;99159.83;1711867;83;21039;-75
2021/09/01 04:22:34;;;;;;;10.78;7.10;;;;;;;15.78;81.58;99162.80;1697687;83;21778;-75
2021/09/01 04:25:01;;;;;;;9.20;8.23;;;;;;;15.83;81.46;99165.39;1689170;83;20983;-78
2021/09/01 04:27:27;;;;;;;15.08;7.55;;;;;;;15.86;81.32;99167.53;1687447;84;21081;-78
2021/09/01 04:29:53;;;;;;;8.28;7.28;;;;;;;15.87;81.14;99167.25;1707829;84;21801;-76
2021/09/01 04:32:20;;;;;;;11.57;7.33;;;;;;;15.90;80.89;99167.19;1687458;84;21069;-76
2021/09/01 04:34:46;;;;;;;9.58;7.33;;;;;;;15.96;80.50;99166.81;1710982;83;21072;-77
2021/09/01 04:37:13;;;;;;;10.18;7.47;;;;;;;16.01;80.13;99162.66;1693541;82;20996;-76
2021/09/01 04:39:39;;;;;;;9.08;7.20;;;;;;;16.04;79.99;99162.05;1687437;84;21068;-74
2021/09/01 04:42:05;;;;;;;19.30;10.13;;;;;;;16.07;79.89;99164.16;1707413;83;21084;-79
2021/09/01 04:44:33;;;;;;;12.55;9.43;;;;;;;16.09;79.88;99157.89;1707869;84;21046;-76
2021/09/01 04:47:00;;;;;;;7.97;5.62;;;;;;;16.16;79.71;99150.73;1707555;84;21094;-75
2021/09/01 04:49:26;;;;;;;8.43;7.47;;;;;;;16.26;78.97;99155.94;1735363;82;21070;-76
2021/09/01 04:51:53;;;;;;;7.53;6.58;;;;;;;16.34;78.43;99149.84;1736911;82;21104;-75
2021/09/01 04:54:19;;;;;;;8.83;7.42;;;;;;;16.42;78.23;99146.97;1672010;85;21087;-75
2021/09/01 04:56:46;;;;;;;12.03;7.97;;;;;;;16.42;77.99;99138.83;1688983;82;21021;-74
2021/09/01 04:59:12;;;;;;;13.10;9.18;;;;;;;16.45;77.99;99139.02;1736439;82;21902;-75
2021/09/01 05:01:39;;;;;;;15.38;12.20;;;;;;;16.49;78.11;99136.52;1725527;82;20997;-75
2021/09/01 05:04:06;;;;;;;14.20;11.10;;;;;;;16.52;78.10;99138.63;1707179;82;20989;-74
2021/09/01 05:06:33;;;;;;;16.57;9.23;;;;;;;16.55;78.36;99132.58;1737224;82;21081;-77
2021/09/01 05:08:59;;;;;;;12.98;9.65;;;;;;;16.57;78.77;99135.81;1711958;83;21090;-77
2021/09/01 05:11:27;;;;;;;15.83;10.08;;;;;;;16.59;79.22;99136.91;1712319;83;21011;-77
2021/09/01 05:13:56;;;;;;;20.23;9.30;;;;;;;16.60;79.75;99133.87;1689585;83;20963;-76
2021/09/01 05:16:22;;;;;;;19.77;11.33;;;;;;;16.63;79.83;99135.19;1700605;83;21029;-75
2021/09/01 05:18:48;;;;;;;19.12;9.93;;;;;;;16.65;80.17;99137.03;1686436;83;21122;-76
2021/09/01 05:21:17;;;;;;;13.03;9.78;;;;;;;16.67;80.69;99137.55;1712467;83;20950;-75
2021/09/01 05:23:45;;;;;;;12.37;9.98;;;;;;;16.72;80.96;99145.03;1710301;83;20962;-75
2021/09/01 05:26:12;;;;;;;14.43;8.05;;;;;;;16.74;81.30;99137.38;1688495;83;21043;-76
2021/09/01 05:28:39;;;;;;;16.75;7.45;;;;;;;16.83;80.83;99140.20;1639739;85;21059;-76
2021/09/01 05:31:07;;;;;;;8.98;8.08;;;;;;;16.92;80.06;99144.61;1691113;82;21032;-74
2021/09/01 05:33:37;;;;;;;9.48;6.78;;;;;;;17.03;78.97;99145.17;1737604;82;21006;-76
2021/09/01 05:36:07;;;;;;;13.90;9.90;;;;;;;17.08;78.53;99150.50;1710619;83;21160;-78
2021/09/01 05:38:33;;;;;;;11.70;8.43;;;;;;;17.12;78.39;99143.92;1710668;83;21583;-75
2021/09/01 05:41:01;;;;;;;15.32;8.20;;;;;;;17.15;78.23;99135.95;1710717;83;21535;-75
2021/09/01 05:43:28;;;;;;;15.95;7.45;;;;;;;17.19;77.84;99127.42;1633423;85;21130;-76
2021/09/01 05:45:54;;;;;;;7.97;6.60;;;;;;;17.29;77.31;99134.55;1684285;83;21000;-77
2021/09/01 05:48:22;;;;;;;10.30;6.00;;;;;;;17.37;76.35;99131.08;1699269;83;21281;-75
2021/09/01 05:50:54;;;;;;;9.95;5.47;;;;;;;17.44;75.58;99132.83;1710587;83;20988;-76
2021/09/01 05:53:21;;;;;;;11.88;7.10;;;;;;;17.45;75.06;99137.16;1661754;83;21017;-76
2021/09/01 05:55:52;;;;;;;8.88;7.12;;;;;;;17.44;74.95;99135.55;1706518;83;21126;-77
2021/09/01 05:58:20;;;;;;;10.50;6.58;;;;;;;17.45;74.55;99135.80;1662073;85;21052;-77
2021/09/01 06:00:55;;;;;;;9.03;6.03;;;;;;;17.49;74.46;99141.42;1685427;85;22009;-75
2021/09/01 06:03:34;;;;;;;7.37;5.95;;;;;;;17.52;74.18;99140.23;1714109;82;20942;-77
2021/09/01 06:06:02;;;;;;;9.95;5.08;;;;;;;17.57;73.86;99129.24;1710006;82;21449;-76
2021/09/01 06:08:34;;;;;;;6.35;5.45;;;;;;;17.66;73.53;99129.33;1728957;82;21602;-76
2021/09/01 06:11:04;;;;;;;6.62;5.37;;;;;;;17.72;73.15;99134.34;1717945;82;21090;-76
2021/09/01 06:13:32;;;;;;;8.23;6.53;;;;;;;17.78;73.20;99132.30;1726030;82;20958;-75
2021/09/01 06:15:59;;;;;;;8.68;6.75;;;;;;;17.85;72.72;99142.17;1712828;82;21014;-79
2021/09/01 06:18:25;;;;;;;6.17;5.53;;;;;;;17.91;72.28;99147.73;1688068;83;20955;-76
2021/09/01 06:20:54;;;;;;;18.57;6.03;;;;;;;17.94;71.92;99143.02;1710716;83;21002;-75
2021/09/01 06:23:21;;;;;;;8.65;4.58;;;;;;;17.98;71.75;99147.30;1730170;82;21092;-74
2021/09/01 06:25:48;;;;;;;5.15;4.65;;;;;;;18.05;71.51;99150.38;1727458;82;21130;-76
2021/09/01 06:28:17;;;;;;;10.03;5.90;;;;;;;18.11;71.59;99151.30;1729424;82;21019;-74
2021/09/01 06:30:43;;;;;;;6.78;5.17;;;;;;;18.19;71.61;99151.08;1716831;82;20994;-74
2021/09/01 06:33:10;;;;;;;6.40;5.78;;;;;;;18.27;71.16;99157.92;1724838;82;21505;-75
2021/09/01 06:35:38;;;;;;;9.30;6.80;;;;;;;18.35;70.79;99159.09;1712247;82;20906;-74
2021/09/01 06:38:06;;;;;;;7.78;6.05;;;;;;;18.42;70.30;99153.18;1692482;82;21161;-75
2021/09/01 06:40:32;;;;;;;8.83;5.92;;;;;;;18.45;69.78;99150.66;1729217;82;20970;-74
2021/09/01 06:43:00;;;;;;;11.68;10.35;;;;;;;18.45;69.24;99149.84;1687565;83;20994;-74
2021/09/01 06:45:26;;;;;;;9.80;6.08;;;;;;;18.43;69.28;99153.43;1710440;83;21026;-74
2021/09/01 06:47:53;;;;;;;8.68;6.95;;;;;;;18.45;68.73;99152.02;1725201;82;21050;-74
2021/09/01 06:50:25;;;;;;;5.12;4.62;;;;;;;18.51;68.49;99153.45;1739812;82;22014;-75
2021/09/01 06:52:53;;;;;;;4.92;4.28;;;;;;;18.56;67.93;99154.70;1740896;82;21050;-76
2021/09/01 06:55:21;;;;;;;4.45;3.72;;;;;;;18.61;67.53;99148.31;1718364;82;21071;-78
2021/09/01 06:57:47;;;;;;;6.85;4.83;;;;;;;18.66;67.33;99149.53;1717463;82;21050;-78
2021/09/01 07:00:16;;;;;;;7.12;4.72;;;;;;;18.67;67.27;99145.14;1717045;82;20959;-79
2021/09/01 07:02:43;;;;;;;6.35;5.42;;;;;;;18.68;67.38;99141.30;1740023;82;21036;-81
2021/09/01 07:05:12;;;;;;;33.75;14.03;;;;;;;18.72;67.78;99145.55;1728650;82;21033;-81
2021/09/01 07:07:41;;;;;;;42.88;15.30;;;;;;;18.80;67.99;99148.07;1694649;83;20986;-77
2021/09/01 07:10:10;;;;;;;12.10;6.45;;;;;;;18.90;67.85;99147.19;1714671;82;21091;-76
2021/09/01 07:12:37;;;;;;;9.30;4.60;;;;;;;19.02;67.38;99152.03;1741664;82;21097;-79
2021/09/01 07:15:09;;;;;;;7.28;4.80;;;;;;;19.12;66.40;99151.17;1741403;82;21088;-79
2021/09/01 07:17:38;;;;;;;10.58;4.55;;;;;;;19.18;66.64;99149.09;1718012;82;20985;-78
2021/09/01 07:20:06;;;;;;;7.62;4.15;;;;;;;19.29;66.66;99150.92;1741574;82;20915;-77
2021/09/01 07:22:33;;;;;;;4.85;4.35;;;;;;;19.37;66.73;99155.60;1741655;82;21109;-79
2021/09/01 07:25:02;;;;;;;12.07;6.33;;;;;;;19.43;66.85;99146.92;1741790;82;21531;-77
2021/09/01 07:27:29;;;;;;;6.17;4.75;;;;;;;19.51;66.62;99152.18;1730710;82;21789;-79
2021/09/01 07:29:56;;;;;;;6.60;4.70;;;;;;;19.59;66.58;99148.08;1730026;83;21058;-78
2021/09/01 07:32:22;;;;;;;5.80;4.75;;;;;;;19.71;66.51;99150.72;1730683;83;21019;-78
2021/09/01 07:34:49;;;;;;;10.60;4.80;;;;;;;19.80;65.31;99146.05;1706011;84;21022;-77
2021/09/01 07:37:15;;;;;;;5.12;4.37;;;;;;;19.87;65.48;99151.80;1717469;83;21569;-80
2021/09/01 07:39:42;;;;;;;5.25;4.75;;;;;;;19.95;65.50;99153.14;1730379;83;21075;-79
2021/09/01 07:42:08;;;;;;;5.22;4.70;;;;;;;19.99;65.08;99147.30;1695294;84;20943;-78
2021/09/01 07:44:35;;;;;;;6.35;5.72;;;;;;;20.07;63.77;99152.48;1681188;84;20955;-77
2021/09/01 07:47:02;;;;;;;5.65;4.87;;;;;;;20.08;63.61;99148.64;1721318;83;21055;-78
2021/09/01 07:49:29;;;;;;;9.03;6.25;;;;;;;20.08;63.55;99151.92;1717402;82;20995;-77
2021/09/01 07:51:57;;;;;;;5.90;4.45;;;;;;;20.06;63.41;99148.70;1730116;82;21156;-76
2021/09/01 07:54:24;;;;;;;7.50;5.05;;;;;;;20.09;63.30;99153.53;1702886;83;21045;-78
2021/09/01 07:56:50;;;;;;;5.60;5.03;;;;;;;20.13;62.85;99151.75;1701368;84;21098;-77
2021/09/01 07:59:17;;;;;;;9.95;5.03;;;;;;;20.14;62.22;99147.91;1709176;83;21046;-77
2021/09/01 08:01:43;;;;;;;4.78;4.33;;;;;;;20.15;62.05;99155.74;1700041;83;20955;-75
2021/09/01 08:04:10;;;;;;;7.90;4.65;;;;;;;20.16;61.46;99164.74;1708028;83;21603;-78
2021/09/01 08:06:36;;;;;;;5.92;5.10;;;;;;;20.10;61.27;99162.75;1694454;83;20995;-77
2021/09/01 08:09:03;;;;;;;5.12;4.37;;;;;;;20.07;61.80;99172.16;1730539;83;21054;-78
2021/09/01 08:11:31;;;;;;;7.10;4.70;;;;;;;20.02;62.01;99161.66;1728289;83;21045;-77
2021/09/01 08:13:58;;;;;;;9.33;4.85;;;;;;;20.01;62.25;99176.42;1706350;83;21130;-79
2021/09/01 08:16:26;;;;;;;8.50;5.15;;;;;;;20.01;62.63;99174.25;1700069;84;20928;-79
2021/09/01 08:18:54;;;;;;;5.65;4.92;;;;;;;19.98;63.40;99171.63;1697350;83;21504;-77
2021/09/01 08:21:21;;;;;;;12.80;8.98;;;;;;;19.99;63.87;99164.23;1726447;83;21025;-78
2021/09/01 08:23:47;;;;;;;30.90;26.20;;;;;;;19.91;64.94;99169.13;1730562;82;21633;-78
2021/09/01 08:26:13;;;;;;;8.70;7.80;;;;;;;19.85;64.92;99171.81;1732486;81;21042;-75
2021/09/01 08:28:40;;;;;;;7.85;5.45;;;;;;;19.83;64.93;99164.50;1710072;82;21492;-77
2021/09/01 08:31:07;;;;;;;6.65;5.47;;;;;;;19.83;65.08;99168.03;1708945;82;21025;-80
2021/09/01 08:33:33;;;;;;;5.37;4.67;;;;;;;19.79;64.91;99166.27;1711918;82;21029;-78
2021/09/01 08:35:59;;;;;;;6.12;5.53;;;;;;;19.73;65.22;99167.00;1683728;85;21592;-76
2021/09/01 08:38:26;;;;;;;5.37;4.42;;;;;;;19.68;65.08;99168.52;1710213;82;21105;-79
2021/09/01 08:40:52;;;;;;;6.03;5.28;;;;;;;19.69;64.60;99166.60;1709222;82;21968;-80
2021/09/01 08:43:19;;;;;;;7.85;5.20;;;;;;;19.71;65.06;99163.00;1683776;83;21051;-80
2021/09/01 08:45:46;;;;;;;5.55;4.80;;;;;;;19.73;65.62;99166.19;1683006;83;21079;-80
2021/09/01 08:48:14;;;;;;;9.48;6.47;;;;;;;19.72;65.79;99161.85;1681969;85;20923;-79
2021/09/01 08:50:42;;;;;;;14.38;12.00;;;;;;;19.78;66.19;99164.66;1668796;84;21101;-79
2021/09/01 08:53:10;;;;;;;11.60;5.83;;;;;;;19.83;65.29;99163.13;1683636;85;21129;-79
2021/09/01 08:55:37;;;;;;;7.67;5.37;;;;;;;19.85;65.53;99162.26;1693194;84;20994;-77
2021/09/01 08:58:04;;;;;;;7.90;5.35;;;;;;;19.90;65.74;99168.33;1663810;84;20966;-78
2021/09/01 09:00:33;;;;;;;12.37;5.25;;;;;;;19.99;64.19;99165.61;1724619;82;21542;-77
2021/09/01 09:03:00;;;;;;;13.48;5.58;;;;;;;20.07;63.55;99170.23;1720688;82;21141;-78
2021/09/01 09:05:39;;;;;;;10.93;5.92;;;;;;;20.12;63.07;99165.97;1724998;82;21114;-78
2021/09/01 09:08:12;;;;;;;13.00;5.90;;;;;;;20.13;62.72;99166.21;1725545;82;21105;-82
2021/09/01 09:10:44;;;;;;;10.90;7.17;;;;;;;20.14;62.02;99167.02;1723596;82;21099;-77
2021/09/01 09:13:14;;;;;;;;;;;;;;;20.14;62.17;99164.28;1743494;81;21527;-78
2021/09/01 09:15:42;;;;;;;7.40;5.35;;;;;;;20.17;62.46;99162.25;1718639;82;20236;-79
2021/09/01 09:18:29;;;;;;;10.32;5.65;;;;;;;20.25;61.77;99160.86;1718063;82;21757;-78
2021/09/01 09:21:15;;;;;;;18.98;6.20;;;;;;;20.34;61.43;99161.66;1714192;82;21049;-77
2021/09/01 09:23:44;;;;;;;8.08;5.72;;;;;;;20.40;61.44;99162.28;1715723;82;20966;-78
2021/09/01 09:26:30;;;;;;;9.78;5.42;;;;;;;20.41;61.55;99159.80;1735999;82;21118;-78
2021/09/01 09:29:20;;;;;;;6.90;6.22;;;;;;;20.44;61.74;99161.86;1700809;83;21731;-73
2021/09/01 09:32:09;;;;;;;7.42;5.40;;;;;;;20.47;61.78;99156.33;1720500;83;22301;-73
2021/09/01 09:34:40;;;;;;;11.55;7.65;;;;;;;20.48;62.30;99155.97;1708012;83;21034;-73
2021/09/01 09:37:12;;;;;;;25.12;22.22;;;;;;;20.54;62.35;99160.13;1701785;83;20966;-73
2021/09/01 09:39:48;;;;;;;10.35;9.13;;;;;;;20.54;62.52;99156.59;1687610;83;21145;-73
2021/09/01 09:42:35;;;;;;;7.53;6.72;;;;;;;20.59;62.60;99158.59;1679037;84;21025;-73
2021/09/01 09:45:19;;;;;;;14.00;6.00;;;;;;;20.64;62.29;99154.86;1652476;85;21207;-72
2021/09/01 09:47:53;;;;;;;10.70;4.72;;;;;;;20.69;62.13;99156.05;1684649;84;21067;-82
2021/09/01 09:50:20;;;;;;;6.75;4.87;;;;;;;20.72;61.84;99154.81;1721145;83;21108;-83
2021/09/01 09:52:46;;;;;;;9.15;5.58;;;;;;;20.76;61.31;99157.71;1703370;83;21060;-81
2021/09/01 09:55:15;;;;;;;6.03;5.10;;;;;;;20.78;61.43;99160.34;1699767;84;21079;-82
2021/09/01 09:57:51;;;;;;;7.53;5.25;;;;;;;20.81;61.46;99162.99;1699933;84;21144;-78
2021/09/01 10:00:18;;;;;;;10.65;5.40;;;;;;;20.79;61.28;99155.11;1709640;83;22222;-83
2021/09/01 10:02:45;;;;;;;7.37;5.25;;;;;;;20.79;61.34;99152.94;1719793;83;21570;-76
2021/09/01 10:05:16;;;;;;;11.05;5.85;;;;;;;20.81;61.56;99146.59;1730426;83;21090;-84
2021/09/01 10:07:44;;;;;;;5.53;4.28;;;;;;;20.84;61.68;99141.25;1730198;82;21534;-87
2021/09/01 10:10:11;;;;;;;12.05;5.95;;;;;;;20.86;61.71;99141.71;1724449;83;21029;-84
2021/09/01 10:12:44;;;;;;;9.58;5.78;;;;;;;20.90;61.66;99137.77;1699382;83;21094;-91
2021/09/01 10:15:16;;;;;;;8.20;5.67;;;;;;;20.94;60.95;99138.70;1712214;83;21030;-87
2021/09/01 10:17:44;;;;;;;5.95;4.92;;;;;;;20.89;60.75;99130.13;1728208;82;21027;-81
2021/09/01 10:20:18;;;;;;;8.40;5.30;;;;;;;20.83;60.81;99128.71;1658919;85;21062;-79
2021/09/01 10:22:44;;;;;;;10.65;4.90;;;;;;;20.84;60.85;99125.42;1730398;82;21141;-78
2021/09/01 10:25:16;;;;;;;6.03;5.42;;;;;;;20.93;60.72;99133.56;1688171;83;20943;-78
2021/09/01 10:27:44;;;;;;;13.70;5.87;;;;;;;20.98;60.62;99134.17;1716260;82;21038;-77
2021/09/01 10:30:12;;;;;;;4.53;4.12;;;;;;;21.04;60.54;99134.78;1670488;85;21531;-78
2021/09/01 10:32:44;;;;;;;9.63;6.03;;;;;;;21.09;59.98;99129.12;1683462;85;21074;-78
2021/09/01 10:35:18;;;;;;;8.68;4.90;;;;;;;21.06;59.91;99128.39;1683389;85;21163;-78
2021/09/01 10:37:53;;;;;;;8.35;4.65;;;;;;;21.03;59.90;99127.14;1657074;85;21011;-77
2021/09/01 10:40:31;;;;;;;5.05;4.60;;;;;;;21.07;58.56;99127.27;1710025;82;21147;-77
2021/09/01 10:43:03;;;;;;;9.85;6.05;;;;;;;21.12;58.53;99127.07;1741688;82;21089;-77
2021/09/01 10:45:50;;;;;;;6.00;4.15;;;;;;;21.23;58.93;99125.02;1736695;82;21026;-82
2021/09/01 10:48:17;;;;;;;6.47;4.53;;;;;;;21.30;58.03;99123.90;1710816;82;21648;-78
2021/09/01 10:50:49;;;;;;;7.58;5.25;;;;;;;21.40;57.94;99125.42;1713600;82;21006;-78
2021/09/01 10:53:25;;;;;;;11.93;4.45;;;;;;;21.52;57.65;99121.95;1712599;83;21041;-78
2021/09/01 10:56:05;;;;;;;4.25;3.85;;;;;;;21.64;56.42;99114.58;1712973;82;21030;-78
2021/09/01 10:58:43;;;;;;;7.87;4.60;;;;;;;21.73;55.23;99116.66;1712245;83;21062;-81
2021/09/01 11:01:22;;;;;;;5.03;4.40;;;;;;;21.83;54.96;99108.59;1713695;82;21026;-79
2021/09/01 11:03:53;;;;;;;4.10;3.70;;;;;;;22.02;54.76;99107.53;1734895;82;21032;-79
2021/09/01 11:06:23;;;;;;;7.55;3.17;;;;;;;22.22;53.40;99107.22;1712802;83;21074;-80
2021/09/01 11:09:07;;;;;;;4.78;4.12;;;;;;;22.41;51.90;99100.61;1709529;83;21049;-81
2021/09/01 11:11:55;;;;;;;4.08;3.77;;;;;;;22.46;51.58;99101.75;1712206;83;21069;-80
2021/09/01 11:14:43;;;;;;;4.80;3.30;;;;;;;22.49;50.66;99107.14;1711835;83;21137;-81
2021/09/01 11:17:13;;;;;;;7.90;4.00;;;;;;;22.57;51.31;99107.58;1710943;83;20997;-78
2021/09/01 11:19:41;;;;;;;5.35;3.50;;;;;;;22.64;50.63;99114.64;1667322;85;21007;-80
2021/09/01 11:22:16;;;;;;;4.75;2.90;;;;;;;22.76;50.24;99122.11;1689445;83;21094;-79
2021/09/01 11:24:50;;;;;;;5.03;3.45;;;;;;;22.86;49.86;99112.84;1686302;83;21041;-79
2021/09/01 11:27:23;;;;;;;6.75;3.70;;;;;;;22.96;49.46;99121.17;1682703;84;21888;-75
2021/09/01 11:29:53;;;;;;;3.67;3.37;;;;;;;23.07;49.37;99113.27;1706104;83;21011;-76
2021/09/01 11:32:20;;;;;;;8.38;3.52;;;;;;;23.08;49.09;99112.10;1735841;82;21042;-75
2021/09/01 11:34:47;;;;;;;6.65;3.40;;;;;;;22.93;49.68;99113.61;1678450;85;21055;-76
2021/09/01 11:37:15;;;;;;;4.75;3.05;;;;;;;22.90;49.91;99108.27;1674518;83;21030;-72
2021/09/01 11:39:44;;;;;;;2.98;2.72;;;;;;;22.83;49.96;99108.03;1687843;83;21127;-74